Time;durP1;ratioP1;P1;durP2;ratioP2;P2;SDS_P1;SDS_P2;PMS_P1;PMS_P2;Temp;Humidity;BMP_temperature;BMP_pressure;BME280_temperature;BME280_humidity;BME280_pressure;Samples;Min_cycle;Max_cycle;Signal;HPM_P1;HPM_P2
2022/04/01 00:00:08;;;;;;;7.53;4.63;;;;;;;;;;5048821;27;95783;-76
2022/04/01 00:02:35;;;;;;;9.32;5.18;;;;;;;;;;5049308;27;97132;-78
2022/04/01 00:05:02;;;;;;;8.18;5.43;;;;;;;;;;5048742;27;97356;-77
2022/04/01 00:07:29;;;;;;;10.18;6.10;;;;;;;;;;5048546;27;95542;-78
2022/04/01 00:09:55;;;;;;;8.88;4.88;;;;;;;;;;5049010;27;96599;-77
2022/04/01 00:12:21;;;;;;;9.27;6.45;;;;;;;;;;5048052;27;97354;-78
2022/04/01 00:14:48;;;;;;;7.50;4.70;;;;;;;;;;5052048;27;95399;-76
2022/04/01 00:17:14;;;;;;;11.65;6.93;;;;;;;;;;5048273;27;98870;-77
2022/04/01 00:19:40;;;;;;;15.77;6.88;;;;;;;;;;5048258;27;96085;-76
2022/04/01 00:22:06;;;;;;;9.98;5.47;;;;;;;;;;5048684;27;95669;-77
2022/04/01 00:24:33;;;;;;;7.15;4.65;;;;;;;;;;5048453;27;97311;-77
2022/04/01 00:26:59;;;;;;;8.52;4.97;;;;;;;;;;5047857;27;96079;-77
2022/04/01 00:29:26;;;;;;;8.57;4.65;;;;;;;;;;5048917;27;97006;-77
2022/04/01 00:31:58;;;;;;;6.50;3.80;;;;;;;;;;5048496;27;97725;-76
2022/04/01 00:34:32;;;;;;;9.85;5.72;;;;;;;;;;5048415;27;95354;-77
2022/04/01 00:36:59;;;;;;;8.30;5.38;;;;;;;;;;5051844;27;97066;-75
2022/04/01 00:39:26;;;;;;;7.85;4.57;;;;;;;;;;5048166;27;95891;-78
2022/04/01 00:41:52;;;;;;;8.68;5.60;;;;;;;;;;5051411;27;96650;-76
2022/04/01 00:44:24;;;;;;;7.95;5.05;;;;;;;;;;5051728;27;96951;-77
2022/04/01 00:46:56;;;;;;;5.65;3.55;;;;;;;;;;5052204;27;95346;-76
2022/04/01 00:49:23;;;;;;;11.05;6.40;;;;;;;;;;5051131;27;97283;-77
2022/04/01 00:51:50;;;;;;;11.77;6.68;;;;;;;;;;5051579;27;96955;-77
2022/04/01 00:54:17;;;;;;;11.23;7.10;;;;;;;;;;5051511;27;95542;-76
2022/04/01 00:56:44;;;;;;;8.85;6.05;;;;;;;;;;5051639;27;96443;-75
2022/04/01 00:59:11;;;;;;;4.18;2.75;;;;;;;;;;5054594;27;97485;-76
2022/04/01 01:01:37;;;;;;;7.75;5.00;;;;;;;;;;5051171;27;96712;-75
2022/04/01 01:04:04;;;;;;;10.50;6.65;;;;;;;;;;5051487;27;97720;-76
2022/04/01 01:06:31;;;;;;;11.15;5.72;;;;;;;;;;5051802;27;95509;-76
2022/04/01 01:08:58;;;;;;;8.63;5.25;;;;;;;;;;5051481;27;96460;-75
2022/04/01 01:11:25;;;;;;;7.30;4.50;;;;;;;;;;5051443;27;95918;-77
2022/04/01 01:13:52;;;;;;;11.90;6.68;;;;;;;;;;5051854;27;95354;-76
2022/04/01 01:16:19;;;;;;;9.93;6.10;;;;;;;;;;5049742;27;96681;-76
2022/04/01 01:18:57;;;;;;;9.73;5.63;;;;;;;;;;5050620;27;97507;-76
2022/04/01 01:21:26;;;;;;;7.97;5.55;;;;;;;;;;5055055;27;95196;-76
2022/04/01 01:23:56;;;;;;;5.75;3.72;;;;;;;;;;5050877;27;97337;-76
2022/04/01 01:26:22;;;;;;;8.65;5.45;;;;;;;;;;5050712;27;95949;-76
2022/04/01 01:28:48;;;;;;;5.38;3.65;;;;;;;;;;5051252;27;96892;-76
2022/04/01 01:31:15;;;;;;;8.07;5.47;;;;;;;;;;5050601;27;97898;-77
2022/04/01 01:33:43;;;;;;;10.55;6.28;;;;;;;;;;5050900;27;96000;-76
2022/04/01 01:36:10;;;;;;;4.07;2.35;;;;;;;;;;5050589;27;97113;-76
2022/04/01 01:38:36;;;;;;;7.72;4.15;;;;;;;;;;5050391;27;97452;-76
2022/04/01 01:41:02;;;;;;;9.98;5.60;;;;;;;;;;5051016;27;95592;-76
2022/04/01 01:43:29;;;;;;;8.50;5.88;;;;;;;;;;5054257;27;96493;-77
2022/04/01 01:45:55;;;;;;;6.85;4.70;;;;;;;;;;5050431;27;95365;-77
2022/04/01 01:48:22;;;;;;;4.53;2.83;;;;;;;;;;5050634;27;96919;-77
2022/04/01 01:56:18;;;;;;;8.60;4.03;;;;;;;;;;5050213;27;96994;-76
2022/04/01 01:58:45;;;;;;;6.75;4.13;;;;;;;;;;5050194;27;97723;-77
2022/04/01 02:01:11;;;;;;;8.95;5.13;;;;;;;;;;5050527;27;95705;-77
2022/04/01 02:03:37;;;;;;;5.97;3.67;;;;;;;;;;5050588;27;96926;-76
2022/04/01 02:06:04;;;;;;;4.13;2.58;;;;;;;;;;5053094;27;97437;-76
2022/04/01 02:08:30;;;;;;;5.65;3.45;;;;;;;;;;5051025;27;97168;-76
2022/04/01 02:10:57;;;;;;;8.25;5.78;;;;;;;;;;5050473;27;97613;-75
2022/04/01 02:13:24;;;;;;;5.60;3.00;;;;;;;;;;5050347;27;95436;-75
2022/04/01 02:15:50;;;;;;;4.68;2.63;;;;;;;;;;5050258;27;96779;-74
2022/04/01 02:18:16;;;;;;;10.50;5.75;;;;;;;;;;5047110;27;97655;-75
2022/04/01 02:20:43;;;;;;;9.13;5.47;;;;;;;;;;5050612;27;96262;-75
2022/04/01 02:23:11;;;;;;;9.23;4.90;;;;;;;;;;5050608;27;96912;-76
2022/04/01 02:25:37;;;;;;;8.18;5.45;;;;;;;;;;5052387;27;97365;-75
2022/04/01 02:28:04;;;;;;;4.63;3.13;;;;;;;;;;5049733;27;96842;-76
2022/04/01 02:30:30;;;;;;;10.00;5.88;;;;;;;;;;5050451;27;97404;-76
2022/04/01 02:32:56;;;;;;;8.88;4.93;;;;;;;;;;5050431;27;95424;-76
2022/04/01 02:35:23;;;;;;;5.88;3.60;;;;;;;;;;5037463;27;97260;-75
2022/04/01 02:37:49;;;;;;;9.07;5.57;;;;;;;;;;5037814;27;96498;-75
2022/04/01 02:40:15;;;;;;;10.15;5.82;;;;;;;;;;5046876;27;95536;-76
2022/04/01 02:42:42;;;;;;;7.68;4.45;;;;;;;;;;5049074;27;97236;-77
2022/04/01 02:45:09;;;;;;;4.72;2.70;;;;;;;;;;5042409;27;96463;-75
2022/04/01 02:47:35;;;;;;;3.13;2.25;;;;;;;;;;5033075;28;95306;-75
2022/04/01 02:50:02;;;;;;;8.10;4.75;;;;;;;;;;5045611;27;97653;-78
2022/04/01 02:52:28;;;;;;;8.80;3.13;;;;;;;;;;5049117;27;95813;-76
2022/04/01 02:54:55;;;;;;;6.13;3.28;;;;;;;;;;5046277;27;96681;-77
2022/04/01 02:57:22;;;;;;;4.40;2.95;;;;;;;;;;5042511;27;97527;-76
2022/04/01 02:59:48;;;;;;;11.38;4.90;;;;;;;;;;5050089;27;95860;-76
2022/04/01 03:02:15;;;;;;;5.07;3.28;;;;;;;;;;5049191;27;96837;-76
2022/04/01 03:04:42;;;;;;;9.07;4.93;;;;;;;;;;5028509;27;97028;-77
2022/04/01 03:07:08;;;;;;;7.90;4.50;;;;;;;;;;5029638;28;95802;-76
2022/04/01 03:09:34;;;;;;;7.85;4.72;;;;;;;;;;5050582;27;96725;-76
2022/04/01 03:12:01;;;;;;;10.65;5.40;;;;;;;;;;5049790;27;95575;-76
2022/04/01 03:14:27;;;;;;;7.30;4.55;;;;;;;;;;5049446;27;96384;-77
2022/04/01 03:16:54;;;;;;;5.05;3.20;;;;;;;;;;5048985;27;97533;-76
2022/04/01 03:19:20;;;;;;;5.10;3.25;;;;;;;;;;5048624;27;96142;-76
2022/04/01 03:21:47;;;;;;;4.20;2.25;;;;;;;;;;5050106;27;96736;-76
2022/04/01 03:24:14;;;;;;;5.88;3.85;;;;;;;;;;5049028;27;97369;-75
2022/04/01 03:26:40;;;;;;;9.85;4.93;;;;;;;;;;5049940;27;95657;-76
2022/04/01 03:29:07;;;;;;;4.25;2.72;;;;;;;;;;5047890;27;96733;-75
2022/04/01 03:31:34;;;;;;;6.60;3.97;;;;;;;;;;5052021;27;97446;-75
2022/04/01 03:34:01;;;;;;;4.85;2.80;;;;;;;;;;5049501;27;96877;-76
2022/04/01 03:36:27;;;;;;;6.82;3.88;;;;;;;;;;5048826;27;97388;-76
2022/04/01 03:38:54;;;;;;;8.18;3.88;;;;;;;;;;5048887;27;95887;-76
2022/04/01 03:41:20;;;;;;;7.28;3.97;;;;;;;;;;5049244;27;95682;-76
2022/04/01 03:43:47;;;;;;;8.73;4.72;;;;;;;;;;5048932;27;98004;-75
2022/04/01 03:46:15;;;;;;;7.60;4.43;;;;;;;;;;5049288;27;95373;-75
2022/04/01 03:48:48;;;;;;;3.63;2.35;;;;;;;;;;5049455;27;96713;-76
2022/04/01 03:51:18;;;;;;;7.00;4.70;;;;;;;;;;5048088;27;97247;-76
2022/04/01 03:53:55;;;;;;;7.68;4.38;;;;;;;;;;5051644;27;95465;-76
2022/04/01 03:56:25;;;;;;;5.25;3.35;;;;;;;;;;5048670;27;96645;-77
2022/04/01 03:58:52;;;;;;;5.95;3.45;;;;;;;;;;5048854;27;95358;-77
2022/04/01 04:01:19;;;;;;;10.48;4.80;;;;;;;;;;5049110;27;96420;-75
2022/04/01 04:03:48;;;;;;;5.32;3.28;;;;;;;;;;5049139;27;97286;-77
2022/04/01 04:06:16;;;;;;;10.18;5.47;;;;;;;;;;5048408;27;95630;-75
2022/04/01 04:08:43;;;;;;;7.40;4.25;;;;;;;;;;5049126;27;96881;-77
2022/04/01 04:11:11;;;;;;;7.40;3.40;;;;;;;;;;5048925;27;97254;-76
2022/04/01 04:13:37;;;;;;;8.50;4.32;;;;;;;;;;5049037;27;95389;-77
2022/04/01 04:16:08;;;;;;;6.40;3.63;;;;;;;;;;5053439;27;96963;-75
2022/04/01 04:18:41;;;;;;;7.57;4.18;;;;;;;;;;5051797;27;95512;-76
2022/04/01 04:21:14;;;;;;;7.60;4.50;;;;;;;;;;5051947;27;95715;-75
2022/04/01 04:23:43;;;;;;;4.57;3.08;;;;;;;;;;5052481;27;97251;-75
2022/04/01 04:26:15;;;;;;;7.07;4.65;;;;;;;;;;5051871;27;95429;-78
2022/04/01 04:28:49;;;;;;;9.13;5.30;;;;;;;;;;5052716;27;97159;-73
2022/04/01 04:31:23;;;;;;;6.43;3.97;;;;;;;;;;5050543;27;98903;-76
2022/04/01 04:33:51;;;;;;;6.75;2.92;;;;;;;;;;5051798;27;96146;-75
2022/04/01 04:36:38;;;;;;;5.78;3.60;;;;;;;;;;5054788;27;97077;-76
2022/04/01 04:39:06;;;;;;;6.72;4.28;;;;;;;;;;5045461;27;95410;-76
2022/04/01 04:41:33;;;;;;;4.55;2.58;;;;;;;;;;5049801;27;96780;-75
2022/04/01 04:44:00;;;;;;;7.63;4.13;;;;;;;;;;5050299;27;98910;-75
2022/04/01 04:46:27;;;;;;;7.95;4.00;;;;;;;;;;5050214;27;96295;-77
2022/04/01 04:48:54;;;;;;;7.43;4.85;;;;;;;;;;5052210;27;97057;-76
2022/04/01 04:51:24;;;;;;;4.22;2.55;;;;;;;;;;5051066;27;97433;-75
2022/04/01 04:53:51;;;;;;;9.40;4.75;;;;;;;;;;5050525;27;95464;-75
2022/04/01 04:56:18;;;;;;;6.95;4.20;;;;;;;;;;5050998;27;97116;-76
2022/04/01 04:58:45;;;;;;;8.38;4.30;;;;;;;;;;5054871;27;96292;-78
2022/04/01 05:01:29;;;;;;;8.55;4.63;;;;;;;;;;5050805;27;96821;-77
2022/04/01 18:34:47;;;;;;;9.05;3.00;;;;;;;;;;5026487;28;96681;-76
2022/04/01 18:37:15;;;;;;;9.07;3.22;;;;;;;;;;5019473;28;96223;-75
2022/04/01 18:39:42;;;;;;;8.90;3.70;;;;;;;;;;5013388;28;95494;-75
2022/04/01 18:42:09;;;;;;;7.20;3.50;;;;;;;;;;5024111;28;96664;-77
2022/04/01 18:44:36;;;;;;;8.90;2.60;;;;;;;;;;5020809;28;97534;-76
2022/04/01 18:47:04;;;;;;;9.15;3.40;;;;;;;;;;4999249;28;95350;-75
2022/04/01 18:49:30;;;;;;;6.35;3.33;;;;;;;;;;5013409;28;96733;-76
2022/04/01 18:51:57;;;;;;;6.00;2.85;;;;;;;;;;5023481;28;97399;-75
2022/04/01 18:54:28;;;;;;;4.55;2.63;;;;;;;;;;5018914;28;95749;-75
2022/04/01 18:56:55;;;;;;;8.30;3.85;;;;;;;;;;5009130;28;97340;-77
2022/04/01 18:59:23;;;;;;;8.23;4.30;;;;;;;;;;5012876;27;95360;-76
2022/04/01 19:01:51;;;;;;;6.57;3.47;;;;;;;;;;5004645;28;96428;-74
2022/04/01 19:04:24;;;;;;;7.18;3.10;;;;;;;;;;5004753;28;97346;-76
2022/04/01 19:06:52;;;;;;;10.05;3.05;;;;;;;;;;5004553;28;95767;-79
2022/04/01 19:09:28;;;;;;;4.13;2.45;;;;;;;;;;5011084;28;96834;-75
2022/04/01 19:11:56;;;;;;;7.03;2.63;;;;;;;;;;5014401;28;97289;-74
2022/04/01 19:14:27;;;;;;;;;;;;;;;;;;5025249;27;96180;-79
2022/04/01 19:16:54;;;;;;;8.13;2.95;;;;;;;;;;5025708;28;126279;-76
2022/04/01 19:19:28;;;;;;;5.55;2.65;;;;;;;;;;5013888;28;95467;-75
2022/04/01 19:22:13;;;;;;;7.45;4.03;;;;;;;;;;4984877;28;96782;-78
2022/04/01 19:24:47;;;;;;;7.13;2.90;;;;;;;;;;5001306;28;96409;-77
2022/04/01 19:27:13;;;;;;;7.18;3.40;;;;;;;;;;5012110;28;95976;-75
2022/04/01 19:29:40;;;;;;;5.32;2.53;;;;;;;;;;5004657;28;96760;-76
2022/04/01 19:32:06;;;;;;;11.00;3.20;;;;;;;;;;5004123;28;97287;-77
2022/04/01 19:34:33;;;;;;;8.02;2.90;;;;;;;;;;5008949;28;96081;-76
2022/04/01 19:37:05;;;;;;;4.25;2.70;;;;;;;;;;5012300;28;96748;-74
2022/04/01 19:39:32;;;;;;;8.27;3.23;;;;;;;;;;5014404;28;97681;-77
2022/04/01 19:41:59;;;;;;;7.53;3.10;;;;;;;;;;5024271;28;97062;-76
2022/04/01 19:44:45;;;;;;;5.78;3.15;;;;;;;;;;5005129;27;97164;-76
2022/04/01 19:47:13;;;;;;;6.18;3.20;;;;;;;;;;4981421;28;96812;-76
2022/04/01 19:49:40;;;;;;;6.35;3.00;;;;;;;;;;4987001;28;96813;-73
2022/04/01 19:52:07;;;;;;;6.03;2.88;;;;;;;;;;4982578;28;97340;-77
2022/04/01 19:54:34;;;;;;;7.50;3.40;;;;;;;;;;5010624;28;96036;-76
2022/04/01 19:57:00;;;;;;;5.32;2.53;;;;;;;;;;4994319;28;96812;-76
2022/04/01 19:59:26;;;;;;;7.10;3.10;;;;;;;;;;4996993;28;97373;-74
2022/04/01 20:01:53;;;;;;;6.65;2.88;;;;;;;;;;4997247;28;95496;-76
2022/04/01 20:04:19;;;;;;;5.53;3.15;;;;;;;;;;4999378;28;97269;-76
2022/04/01 20:06:47;;;;;;;6.45;2.90;;;;;;;;;;4990998;28;95819;-77
2022/04/01 20:09:13;;;;;;;7.22;3.25;;;;;;;;;;4990150;28;96881;-79
2022/04/01 20:11:40;;;;;;;11.43;3.35;;;;;;;;;;4990490;28;97477;-74
2022/04/01 20:14:06;;;;;;;8.40;3.53;;;;;;;;;;4991572;28;95779;-74
2022/04/01 20:16:33;;;;;;;8.95;4.05;;;;;;;;;;4989919;28;95573;-78
2022/04/01 20:19:00;;;;;;;7.57;3.03;;;;;;;;;;4990108;28;97244;-74
2022/04/01 20:21:27;;;;;;;6.20;2.90;;;;;;;;;;4990856;28;95404;-76
2022/04/01 20:23:53;;;;;;;7.60;3.30;;;;;;;;;;5003349;28;96795;-75
2022/04/01 20:26:19;;;;;;;8.52;3.47;;;;;;;;;;4993908;28;95543;-77
2022/04/01 20:28:47;;;;;;;8.60;3.45;;;;;;;;;;4993158;28;96595;-76
2022/04/01 20:31:14;;;;;;;8.38;3.10;;;;;;;;;;4994286;28;97304;-76
2022/04/01 20:33:41;;;;;;;8.20;2.90;;;;;;;;;;4990890;28;95306;-75
2022/04/01 20:36:07;;;;;;;5.97;3.03;;;;;;;;;;5003366;28;96496;-75
2022/04/01 20:38:33;;;;;;;7.25;3.13;;;;;;;;;;5009302;28;97435;-74
2022/04/01 20:41:00;;;;;;;9.90;3.22;;;;;;;;;;4997459;28;95608;-77
2022/04/01 20:43:26;;;;;;;7.22;3.45;;;;;;;;;;4989241;28;96041;-75
2022/04/01 20:45:53;;;;;;;7.10;3.00;;;;;;;;;;4993365;28;95326;-74
2022/04/01 20:48:19;;;;;;;11.68;3.58;;;;;;;;;;4990993;28;96836;-74
2022/04/01 20:50:45;;;;;;;9.75;2.97;;;;;;;;;;4991574;28;97314;-75
2022/04/01 20:53:12;;;;;;;8.57;3.00;;;;;;;;;;4990774;28;95307;-77
2022/04/01 20:55:39;;;;;;;9.35;3.10;;;;;;;;;;4990376;28;96735;-74
2022/04/01 20:58:05;;;;;;;8.27;4.13;;;;;;;;;;4989640;28;97409;-74
2022/04/01 21:00:31;;;;;;;7.80;3.22;;;;;;;;;;5003955;28;95434;-74
2022/04/01 21:02:58;;;;;;;8.27;3.40;;;;;;;;;;5010884;28;96713;-75
2022/04/01 21:05:24;;;;;;;6.82;3.20;;;;;;;;;;5013206;28;97123;-75
2022/04/01 21:07:51;;;;;;;7.90;3.50;;;;;;;;;;5010846;28;96698;-74
2022/04/01 21:10:17;;;;;;;8.45;3.50;;;;;;;;;;4998907;28;96733;-74
2022/04/01 21:12:44;;;;;;;10.27;3.40;;;;;;;;;;4990414;28;95264;-74
2022/04/01 21:15:10;;;;;;;9.23;3.17;;;;;;;;;;4990368;28;96830;-74
2022/04/01 21:17:37;;;;;;;7.38;3.45;;;;;;;;;;4990490;28;97379;-74
2022/04/01 21:20:05;;;;;;;14.00;3.63;;;;;;;;;;4989873;28;95435;-74
2022/04/01 21:22:31;;;;;;;7.13;3.50;;;;;;;;;;4990704;28;97261;-75
2022/04/01 21:25:00;;;;;;;8.02;3.30;;;;;;;;;;4989782;28;96198;-74
2022/04/01 21:27:27;;;;;;;8.70;3.55;;;;;;;;;;4993369;28;95359;-75
2022/04/01 21:29:56;;;;;;;7.60;3.55;;;;;;;;;;4992562;28;97698;-76
2022/04/01 21:32:23;;;;;;;11.50;3.67;;;;;;;;;;5009823;28;95396;-75
2022/04/01 21:34:51;;;;;;;7.72;3.42;;;;;;;;;;5010506;28;96786;-75
2022/04/01 21:37:24;;;;;;;9.02;4.10;;;;;;;;;;5009818;28;97326;-74
2022/04/01 21:39:52;;;;;;;8.52;3.80;;;;;;;;;;5007954;28;95724;-73
2022/04/01 21:42:19;;;;;;;9.50;3.47;;;;;;;;;;4990288;28;96776;-76
2022/04/01 21:44:45;;;;;;;14.82;3.75;;;;;;;;;;4989933;28;97942;-74
2022/04/01 21:47:11;;;;;;;8.68;3.90;;;;;;;;;;4989570;28;95357;-77
2022/04/01 21:49:38;;;;;;;12.93;3.67;;;;;;;;;;4993305;28;97333;-75
2022/04/01 21:52:06;;;;;;;9.18;4.03;;;;;;;;;;4991177;28;97016;-77
2022/04/01 21:54:33;;;;;;;9.73;4.35;;;;;;;;;;4989660;28;96453;-78
2022/04/01 21:56:59;;;;;;;7.57;4.05;;;;;;;;;;4989737;28;97484;-77
2022/04/01 21:59:26;;;;;;;7.43;4.30;;;;;;;;;;4989832;28;95653;-77
2022/04/01 22:01:53;;;;;;;9.27;4.03;;;;;;;;;;5003545;28;96785;-77
2022/04/01 22:04:20;;;;;;;9.80;4.05;;;;;;;;;;5009217;28;97261;-78
2022/04/01 22:06:47;;;;;;;12.50;4.75;;;;;;;;;;5010171;28;95954;-75
2022/04/01 22:09:14;;;;;;;9.85;4.10;;;;;;;;;;5002681;28;96563;-77
2022/04/01 22:11:42;;;;;;;10.95;4.43;;;;;;;;;;4992842;28;97310;-77
2022/04/01 22:14:09;;;;;;;8.55;4.18;;;;;;;;;;4989403;28;96770;-77
2022/04/01 22:16:35;;;;;;;11.95;4.72;;;;;;;;;;4989123;28;97461;-76
2022/04/01 22:19:03;;;;;;;8.95;3.65;;;;;;;;;;4993396;28;95376;-77
2022/04/01 22:21:29;;;;;;;8.75;4.28;;;;;;;;;;5009478;28;97198;-76
2022/04/01 22:23:55;;;;;;;7.18;4.00;;;;;;;;;;5009265;28;97478;-75
2022/04/01 22:26:22;;;;;;;8.55;3.83;;;;;;;;;;5009419;28;96352;-77
2022/04/01 22:28:48;;;;;;;10.52;3.92;;;;;;;;;;5009191;28;96868;-75
2022/04/01 22:31:18;;;;;;;7.18;3.78;;;;;;;;;;4988887;28;96238;-77
2022/04/01 22:33:48;;;;;;;10.57;4.85;;;;;;;;;;4991220;28;96149;-77
2022/04/01 22:36:15;;;;;;;10.15;3.80;;;;;;;;;;4988492;28;97344;-76
2022/04/01 22:38:42;;;;;;;11.45;3.95;;;;;;;;;;4989745;28;95611;-76
2022/04/01 22:41:08;;;;;;;9.50;3.55;;;;;;;;;;5006404;28;95868;-76
2022/04/01 22:43:36;;;;;;;7.93;3.30;;;;;;;;;;5008199;28;97698;-77
2022/04/01 22:46:03;;;;;;;7.28;3.28;;;;;;;;;;5008629;28;95835;-76
2022/04/01 22:48:30;;;;;;;7.40;3.20;;;;;;;;;;5008796;28;96977;-77
2022/04/01 22:50:57;;;;;;;10.55;3.90;;;;;;;;;;4991772;28;97158;-76
2022/04/01 22:53:23;;;;;;;10.02;3.15;;;;;;;;;;4991986;28;95677;-76
2022/04/01 22:55:50;;;;;;;8.35;4.05;;;;;;;;;;4988064;28;96439;-74
2022/04/01 22:58:16;;;;;;;9.13;3.50;;;;;;;;;;4987941;28;95661;-77
2022/04/01 23:00:43;;;;;;;6.72;3.67;;;;;;;;;;4989988;28;96925;-75
2022/04/01 23:03:09;;;;;;;9.95;3.38;;;;;;;;;;4988404;28;96586;-76
2022/04/01 23:05:37;;;;;;;5.32;3.17;;;;;;;;;;4987890;28;95689;-75
2022/04/01 23:08:03;;;;;;;8.05;3.63;;;;;;;;;;4988858;28;96762;-74
2022/04/01 23:10:30;;;;;;;12.23;3.35;;;;;;;;;;4993037;28;97499;-77
2022/04/01 23:12:56;;;;;;;6.40;3.10;;;;;;;;;;5007900;28;95824;-74
2022/04/01 23:15:23;;;;;;;8.38;3.42;;;;;;;;;;5010793;28;96801;-75
2022/04/01 23:17:52;;;;;;;8.93;3.30;;;;;;;;;;5008188;28;95308;-75
2022/04/01 23:20:19;;;;;;;8.93;3.72;;;;;;;;;;5004943;28;96808;-74
2022/04/01 23:22:49;;;;;;;8.52;3.30;;;;;;;;;;4991885;28;97376;-75
2022/04/01 23:25:15;;;;;;;8.20;3.55;;;;;;;;;;4990774;28;97142;-73
2022/04/01 23:27:45;;;;;;;10.43;3.65;;;;;;;;;;4992025;28;96812;-74
2022/04/01 23:30:12;;;;;;;9.45;3.53;;;;;;;;;;5008426;28;97515;-77
2022/04/01 23:32:39;;;;;;;6.70;3.33;;;;;;;;;;5011434;28;95480;-77
2022/04/01 23:35:07;;;;;;;8.75;3.50;;;;;;;;;;5011403;28;96664;-77
2022/04/01 23:37:34;;;;;;;7.82;3.40;;;;;;;;;;5014535;28;97288;-77
2022/04/01 23:40:01;;;;;;;13.73;3.80;;;;;;;;;;5008886;28;97547;-74
2022/04/01 23:42:28;;;;;;;9.18;3.63;;;;;;;;;;5011116;28;96262;-75
2022/04/01 23:44:56;;;;;;;6.88;3.25;;;;;;;;;;5011638;28;95795;-75
2022/04/01 23:47:23;;;;;;;6.30;2.85;;;;;;;;;;5011199;28;96877;-73
2022/04/01 23:49:50;;;;;;;7.78;3.05;;;;;;;;;;5001144;28;97450;-73
2022/04/01 23:52:16;;;;;;;9.13;3.35;;;;;;;;;;4991349;28;95201;-78
2022/04/01 23:54:42;;;;;;;9.57;3.35;;;;;;;;;;4990891;28;96887;-77
2022/04/01 23:57:09;;;;;;;14.10;3.17;;;;;;;;;;4991149;28;97422;-75
2022/04/01 23:59:35;;;;;;;5.70;3.17;;;;;;;;;;5002074;28;95708;-74
